Time;durP1;ratioP1;P1;durP2;ratioP2;P2;SDS_P1;SDS_P2;PMS_P1;PMS_P2;Temp;Humidity;BMP_temperature;BMP_pressure;BME280_temperature;BME280_humidity;BME280_pressure;Samples;Min_cycle;Max_cycle;Signal;HPM_P1;HPM_P2
2024/03/03 00:00:59;;;;;;;6.22;3.38;;;10.40;99.90;;;;;;6183574;23;20374;-93
2024/03/03 00:03:25;;;;;;;8.05;3.92;;;10.40;99.90;;;;;;6180852;23;20020;-91
2024/03/03 00:05:51;;;;;;;6.05;4.10;;;10.40;99.90;;;;;;6181542;22;20016;-92
2024/03/03 00:08:18;;;;;;;5.57;3.40;;;10.40;99.90;;;;;;6168468;23;20093;-91
2024/03/03 00:10:44;;;;;;;5.90;4.10;;;10.40;99.90;;;;;;6207835;22;20603;-91
2024/03/03 00:13:10;;;;;;;5.00;3.75;;;10.30;99.90;;;;;;6183975;22;20013;-92
2024/03/03 00:15:35;;;;;;;5.57;3.35;;;10.40;99.90;;;;;;6171066;23;20061;-92
2024/03/03 00:18:01;;;;;;;4.72;3.08;;;10.40;99.90;;;;;;6180014;22;20055;-92
2024/03/03 00:20:27;;;;;;;5.45;3.70;;;10.50;99.90;;;;;;6182893;23;20252;-91
2024/03/03 00:22:52;;;;;;;3.60;2.55;;;10.60;99.90;;;;;;6182031;22;20032;-90
2024/03/03 00:25:18;;;;;;;8.27;3.80;;;10.50;99.90;;;;;;6180214;22;20064;-91
2024/03/03 00:27:43;;;;;;;7.22;3.45;;;10.50;99.90;;;;;;6180602;22;20012;-91
2024/03/03 00:30:10;;;;;;;6.22;3.20;;;10.50;99.90;;;;;;6180185;22;20013;-91
2024/03/03 00:32:35;;;;;;;4.50;3.25;;;10.50;99.90;;;;;;6178678;22;20016;-90
2024/03/03 00:35:01;;;;;;;4.40;3.65;;;10.50;99.90;;;;;;6182506;23;20008;-91
2024/03/03 00:37:26;;;;;;;11.07;5.57;;;10.40;99.90;;;;;;6156804;23;20071;-91
2024/03/03 00:39:53;;;;;;;8.15;3.25;;;10.40;99.90;;;;;;6180562;23;20012;-91
2024/03/03 00:42:19;;;;;;;3.30;2.10;;;10.50;99.90;;;;;;6180619;23;20020;-91
2024/03/03 00:44:44;;;;;;;5.75;3.45;;;10.50;99.90;;;;;;6167483;23;20009;-90
2024/03/03 00:47:10;;;;;;;6.25;3.67;;;10.50;99.90;;;;;;6182968;22;20013;-91
2024/03/03 00:49:36;;;;;;;6.47;3.28;;;10.30;99.90;;;;;;6182656;22;20351;-91
2024/03/03 00:52:03;;;;;;;6.88;3.38;;;10.10;99.90;;;;;;6182698;22;20091;-91
2024/03/03 00:54:29;;;;;;;6.55;3.20;;;10.30;99.90;;;;;;6184495;23;20020;-91
2024/03/03 00:56:54;;;;;;;4.32;2.88;;;10.30;99.90;;;;;;6187416;22;20371;-92
2024/03/03 00:59:20;;;;;;;4.38;3.55;;;10.10;99.90;;;;;;6186536;22;20437;-91
2024/03/03 01:01:45;;;;;;;4.88;2.88;;;9.80;99.90;;;;;;6186891;22;20779;-91
2024/03/03 01:04:13;;;;;;;3.92;2.67;;;10.10;99.90;;;;;;6188289;23;20079;-91
2024/03/03 01:06:38;;;;;;;4.95;2.92;;;10.00;99.90;;;;;;6186171;23;20012;-91
2024/03/03 01:09:05;;;;;;;4.25;2.35;;;10.00;99.90;;;;;;6172752;22;20016;-91
2024/03/03 01:11:31;;;;;;;5.05;2.85;;;10.10;99.90;;;;;;6190622;23;20046;-90
2024/03/03 01:13:56;;;;;;;3.53;2.22;;;10.10;99.90;;;;;;6188640;23;20009;-90
2024/03/03 01:16:23;;;;;;;4.95;2.33;;;10.20;99.90;;;;;;6188228;22;20085;-92
2024/03/03 01:18:49;;;;;;;3.15;2.28;;;10.20;99.90;;;;;;6187229;22;20023;-92
2024/03/03 01:21:14;;;;;;;6.60;2.80;;;10.10;99.90;;;;;;6211578;22;20518;-90
2024/03/03 01:23:40;;;;;;;5.35;2.90;;;10.20;99.90;;;;;;6184554;22;20323;-91
2024/03/03 01:26:06;;;;;;;6.28;2.92;;;10.20;99.90;;;;;;6186228;22;20014;-92
2024/03/03 01:28:31;;;;;;;6.28;3.15;;;10.20;99.90;;;;;;6186902;23;20196;-90
2024/03/03 01:30:57;;;;;;;3.47;2.63;;;10.20;99.90;;;;;;6184857;23;20346;-91
2024/03/03 01:33:22;;;;;;;5.40;2.50;;;10.20;99.90;;;;;;6184016;22;20043;-92
2024/03/03 01:35:48;;;;;;;5.90;2.92;;;10.20;99.90;;;;;;6182733;23;20016;-92
2024/03/03 01:38:14;;;;;;;3.63;2.08;;;10.20;99.90;;;;;;6186009;22;20003;-91
2024/03/03 01:40:39;;;;;;;3.20;2.50;;;10.20;99.90;;;;;;6184187;22;20016;-92
2024/03/03 01:43:06;;;;;;;6.60;3.50;;;10.10;99.90;;;;;;6185642;22;20054;-92
2024/03/03 01:45:31;;;;;;;4.93;3.70;;;10.00;99.90;;;;;;6185913;23;20813;-92
2024/03/03 01:47:57;;;;;;;5.90;3.60;;;10.10;99.90;;;;;;6184683;22;20004;-92
2024/03/03 01:50:23;;;;;;;6.10;3.30;;;10.10;99.90;;;;;;6186385;22;20008;-94
2024/03/03 01:52:49;;;;;;;7.55;4.25;;;10.10;99.90;;;;;;6182222;22;20020;-92
2024/03/03 01:55:20;;;;;;;4.88;3.30;;;10.00;99.90;;;;;;6177293;22;20458;-92
2024/03/03 01:57:46;;;;;;;5.30;2.83;;;10.10;99.90;;;;;;6178203;22;20856;-92
2024/03/03 02:00:13;;;;;;;4.40;2.72;;;10.10;99.90;;;;;;6179639;22;20032;-91
2024/03/03 02:02:39;;;;;;;4.43;3.10;;;10.10;99.90;;;;;;6179360;22;20775;-91
2024/03/03 02:05:06;;;;;;;6.78;3.03;;;10.10;99.90;;;;;;6181393;23;20012;-91
2024/03/03 02:07:32;;;;;;;5.28;3.45;;;10.10;99.90;;;;;;6179763;23;20016;-93
2024/03/03 02:09:58;;;;;;;5.78;3.75;;;10.20;99.90;;;;;;6178536;22;20062;-92
2024/03/03 02:12:25;;;;;;;4.93;3.25;;;10.30;99.90;;;;;;6178199;22;20008;-91
2024/03/03 02:14:51;;;;;;;7.47;4.05;;;10.20;99.90;;;;;;6178926;22;20095;-92
2024/03/03 02:17:17;;;;;;;4.90;3.72;;;10.20;99.90;;;;;;6178590;22;20016;-92
2024/03/03 02:19:43;;;;;;;4.68;3.22;;;10.30;99.90;;;;;;6180373;22;20073;-92
2024/03/03 02:22:08;;;;;;;5.70;3.85;;;10.30;99.90;;;;;;6178545;23;20004;-92
2024/03/03 02:24:34;;;;;;;7.03;4.10;;;10.10;99.90;;;;;;6182028;23;20020;-92
2024/03/03 02:26:59;;;;;;;6.60;3.17;;;10.20;99.90;;;;;;6180350;23;20102;-92
2024/03/03 02:29:25;;;;;;;8.32;3.85;;;10.20;99.90;;;;;;6180289;22;20123;-92
2024/03/03 02:31:51;;;;;;;6.43;4.50;;;10.00;99.90;;;;;;6178500;22;20008;-92
2024/03/03 02:34:17;;;;;;;7.40;4.32;;;10.20;99.90;;;;;;6178882;22;20091;-91
2024/03/03 02:36:42;;;;;;;6.55;4.55;;;10.10;99.90;;;;;;6180355;22;20008;-92
2024/03/03 02:39:08;;;;;;;7.63;4.95;;;10.10;99.90;;;;;;6179109;22;20009;-91
2024/03/03 02:41:33;;;;;;;9.15;5.13;;;10.00;99.90;;;;;;6180182;23;20023;-92
2024/03/03 02:43:59;;;;;;;8.70;4.95;;;10.10;99.90;;;;;;6182696;22;20390;-92
2024/03/03 02:46:25;;;;;;;9.90;5.05;;;10.10;99.90;;;;;;6180993;22;20016;-91
2024/03/03 02:48:51;;;;;;;8.50;4.72;;;9.80;99.90;;;;;;6181240;22;20025;-91
2024/03/03 02:51:16;;;;;;;10.07;4.70;;;9.80;99.90;;;;;;6180339;23;20020;-91
2024/03/03 02:53:42;;;;;;;6.03;3.67;;;10.00;99.90;;;;;;6180572;22;20163;-92
2024/03/03 02:56:07;;;;;;;6.90;4.55;;;10.10;99.90;;;;;;6178809;22;20450;-92
2024/03/03 02:58:34;;;;;;;9.48;4.75;;;10.10;99.90;;;;;;6181714;23;20012;-92
2024/03/03 03:01:00;;;;;;;6.43;3.95;;;10.10;99.90;;;;;;6179305;22;20445;-90
2024/03/03 03:03:26;;;;;;;5.00;3.60;;;10.20;99.90;;;;;;6180909;23;21536;-92
2024/03/03 03:05:51;;;;;;;5.95;3.70;;;10.20;99.90;;;;;;6180977;22;20036;-91
2024/03/03 03:08:17;;;;;;;6.45;3.70;;;10.20;99.90;;;;;;6179496;22;20020;-91
2024/03/03 03:10:42;;;;;;;6.13;4.28;;;10.20;99.90;;;;;;6179335;22;20021;-91
2024/03/03 03:13:08;;;;;;;9.07;5.10;;;10.10;99.90;;;;;;6180104;22;20317;-91
2024/03/03 03:15:35;;;;;;;6.28;4.28;;;10.10;99.90;;;;;;6206034;23;20435;-92
2024/03/03 03:18:04;;;;;;;9.18;5.22;;;10.20;99.90;;;;;;6180563;23;20009;-90
2024/03/03 03:20:30;;;;;;;7.78;4.68;;;10.10;99.90;;;;;;6180547;22;20502;-91
2024/03/03 03:22:55;;;;;;;8.18;4.07;;;10.10;99.90;;;;;;6179132;23;20008;-91
2024/03/03 03:25:21;;;;;;;7.25;4.45;;;10.10;99.90;;;;;;6179880;22;20008;-91
2024/03/03 03:27:47;;;;;;;6.07;3.83;;;10.10;99.90;;;;;;6180835;22;20008;-91
2024/03/03 03:30:12;;;;;;;9.48;5.85;;;10.00;99.90;;;;;;6180165;22;20088;-91
2024/03/03 03:32:39;;;;;;;12.48;5.88;;;9.90;99.90;;;;;;6178856;22;20016;-92
2024/03/03 03:35:05;;;;;;;10.05;5.88;;;9.80;99.90;;;;;;6179985;23;20017;-91
2024/03/03 03:37:30;;;;;;;10.40;5.55;;;9.60;99.90;;;;;;6179602;22;20156;-90
2024/03/03 03:39:56;;;;;;;10.10;6.25;;;9.60;99.90;;;;;;6179893;23;20686;-91
2024/03/03 03:42:22;;;;;;;11.75;6.40;;;9.40;99.90;;;;;;6178868;22;20040;-92
2024/03/03 03:44:47;;;;;;;11.38;5.93;;;9.30;99.90;;;;;;6179682;23;20036;-91
2024/03/03 03:47:13;;;;;;;11.80;6.22;;;9.20;99.90;;;;;;6180815;23;20016;-91
2024/03/03 03:49:38;;;;;;;10.55;5.70;;;9.10;99.90;;;;;;6178900;22;20343;-90
2024/03/03 03:52:04;;;;;;;8.95;5.70;;;9.10;99.90;;;;;;6181254;23;20012;-92
2024/03/03 03:54:30;;;;;;;8.18;4.82;;;9.10;99.90;;;;;;6182444;22;20016;-92
2024/03/03 03:56:58;;;;;;;9.50;5.13;;;9.10;99.90;;;;;;6165646;23;20017;-92
2024/03/03 03:59:24;;;;;;;7.30;5.00;;;9.10;99.90;;;;;;6185561;22;20027;-91
2024/03/03 04:01:53;;;;;;;9.80;4.22;;;9.20;99.90;;;;;;6184985;22;20004;-92
2024/03/03 04:04:19;;;;;;;9.73;5.57;;;9.30;99.90;;;;;;6182439;22;20012;-93
2024/03/03 04:06:44;;;;;;;7.70;4.88;;;9.20;99.90;;;;;;6184927;22;20507;-91
2024/03/03 04:09:10;;;;;;;8.27;5.25;;;9.00;99.90;;;;;;6186183;22;20031;-91
2024/03/03 04:11:36;;;;;;;9.43;5.15;;;8.90;99.90;;;;;;6185164;23;20012;-91
2024/03/03 04:14:01;;;;;;;8.45;5.45;;;8.80;99.90;;;;;;6185813;23;20008;-93
2024/03/03 04:16:27;;;;;;;13.20;5.32;;;8.80;99.90;;;;;;6185189;22;20046;-92
2024/03/03 04:18:52;;;;;;;8.35;6.05;;;8.80;99.90;;;;;;6184910;22;20012;-91
2024/03/03 04:21:18;;;;;;;13.13;6.60;;;8.60;99.90;;;;;;6185885;22;20301;-92
2024/03/03 04:23:43;;;;;;;8.57;6.13;;;8.50;99.90;;;;;;6185840;22;20008;-91
2024/03/03 04:26:09;;;;;;;10.90;6.03;;;8.50;99.90;;;;;;6186364;22;20031;-91
2024/03/03 04:28:35;;;;;;;8.40;5.57;;;8.50;99.90;;;;;;6186540;23;20016;-93
2024/03/03 04:31:05;;;;;;;10.10;5.65;;;8.60;99.90;;;;;;6185251;22;20008;-92
2024/03/03 04:33:31;;;;;;;13.88;6.18;;;8.50;99.90;;;;;;6183092;22;20038;-91
2024/03/03 04:35:57;;;;;;;9.88;5.70;;;8.60;99.90;;;;;;6183693;22;20024;-91
2024/03/03 04:38:23;;;;;;;10.00;6.10;;;8.70;99.90;;;;;;6184463;22;20027;-90
2024/03/03 04:40:48;;;;;;;7.40;4.90;;;8.60;99.90;;;;;;6184579;22;20307;-91
2024/03/03 04:43:14;;;;;;;9.52;4.93;;;8.80;99.90;;;;;;6185074;22;20417;-91
2024/03/03 04:45:40;;;;;;;7.30;4.68;;;8.90;99.90;;;;;;6188323;22;20008;-93
2024/03/03 04:48:08;;;;;;;11.77;6.30;;;8.80;99.90;;;;;;6190058;23;20510;-92
2024/03/03 04:50:34;;;;;;;12.30;7.03;;;8.90;99.90;;;;;;6187726;23;20353;-91
2024/03/03 04:53:00;;;;;;;13.68;8.10;;;8.90;99.90;;;;;;6187293;23;20027;-93
2024/03/03 04:55:25;;;;;;;15.77;6.63;;;8.70;99.90;;;;;;6182037;22;20032;-92
2024/03/03 04:57:52;;;;;;;18.67;8.10;;;8.60;99.90;;;;;;6180192;22;20005;-91
2024/03/03 05:00:17;;;;;;;13.25;7.25;;;8.60;99.90;;;;;;6181281;22;20016;-91
2024/03/03 05:02:43;;;;;;;14.02;7.93;;;8.50;99.90;;;;;;6181118;23;20438;-91
2024/03/03 05:05:09;;;;;;;11.32;7.18;;;8.40;99.90;;;;;;6181757;22;20020;-91
2024/03/03 05:07:35;;;;;;;12.65;6.43;;;8.40;99.90;;;;;;6182159;23;20009;-91
2024/03/03 05:10:00;;;;;;;8.80;5.13;;;8.30;99.90;;;;;;6181327;22;20043;-91
2024/03/03 05:12:26;;;;;;;11.35;7.50;;;8.50;99.90;;;;;;6180086;22;20013;-92
2024/03/03 05:14:51;;;;;;;15.43;8.82;;;8.50;99.90;;;;;;6179160;23;20017;-90
2024/03/03 05:17:17;;;;;;;12.40;7.68;;;8.40;99.90;;;;;;6204859;23;20015;-92
2024/03/03 05:19:43;;;;;;;18.35;8.93;;;8.30;99.90;;;;;;6165853;23;20020;-91
2024/03/03 05:22:09;;;;;;;14.70;9.30;;;8.20;99.90;;;;;;6157185;22;20024;-91
2024/03/03 05:24:34;;;;;;;14.85;7.70;;;8.30;99.90;;;;;;6206572;23;20005;-91
2024/03/03 05:27:00;;;;;;;18.40;9.95;;;8.20;99.90;;;;;;6166343;23;20012;-92
2024/03/03 05:29:28;;;;;;;10.65;7.07;;;8.20;99.90;;;;;;6179925;22;20252;-92
2024/03/03 05:31:54;;;;;;;14.45;9.55;;;8.40;99.90;;;;;;6181053;22;20185;-91
2024/03/03 05:34:21;;;;;;;16.70;8.35;;;8.60;99.90;;;;;;6180407;22;20392;-91
2024/03/03 05:36:47;;;;;;;14.25;8.60;;;8.50;99.90;;;;;;6179854;22;20065;-91
2024/03/03 05:39:13;;;;;;;17.13;9.65;;;8.50;99.90;;;;;;6178995;22;20025;-92
2024/03/03 05:41:39;;;;;;;18.73;9.27;;;8.40;99.90;;;;;;6181019;23;20067;-91
2024/03/03 05:44:04;;;;;;;14.95;9.50;;;8.30;99.90;;;;;;6166807;23;20016;-91
2024/03/03 05:46:31;;;;;;;18.23;9.65;;;8.40;99.90;;;;;;6177613;22;20016;-91
2024/03/03 05:48:57;;;;;;;15.75;9.23;;;8.30;99.90;;;;;;6178909;23;20087;-91
2024/03/03 05:51:22;;;;;;;15.77;8.50;;;8.20;99.90;;;;;;6163137;23;20047;-91
2024/03/03 05:53:48;;;;;;;16.42;9.15;;;8.30;99.90;;;;;;6178882;22;20020;-91
2024/03/03 05:56:16;;;;;;;11.15;6.25;;;8.30;99.90;;;;;;6180712;22;20020;-91
2024/03/03 05:58:44;;;;;;;11.38;7.05;;;8.40;99.90;;;;;;6175157;23;20401;-90
2024/03/03 06:01:10;;;;;;;15.25;8.93;;;8.50;99.90;;;;;;6179083;22;20024;-91
2024/03/03 06:03:39;;;;;;;15.82;8.63;;;8.30;99.90;;;;;;6181189;23;20017;-90
2024/03/03 06:06:05;;;;;;;16.58;8.63;;;8.40;99.90;;;;;;6154984;23;20008;-90
2024/03/03 06:08:33;;;;;;;15.90;8.65;;;8.40;99.90;;;;;;6179085;22;20080;-91
2024/03/03 06:10:59;;;;;;;15.40;9.00;;;8.30;99.90;;;;;;6178509;23;20016;-90
2024/03/03 06:13:25;;;;;;;14.30;7.90;;;8.30;99.90;;;;;;6180029;22;20023;-92
2024/03/03 06:15:51;;;;;;;15.43;8.02;;;8.30;99.90;;;;;;6179985;22;20012;-92
2024/03/03 06:18:16;;;;;;;12.50;8.05;;;8.40;99.90;;;;;;6179728;22;20058;-91
2024/03/03 06:20:42;;;;;;;14.15;8.50;;;8.20;99.90;;;;;;6179867;23;20345;-93
2024/03/03 06:23:08;;;;;;;13.13;8.63;;;8.40;99.90;;;;;;6180471;23;20009;-92
2024/03/03 06:25:33;;;;;;;12.80;7.75;;;8.20;99.90;;;;;;6180652;22;20001;-90
2024/03/03 06:27:59;;;;;;;11.63;7.95;;;8.20;99.90;;;;;;6179955;22;20009;-91
2024/03/03 06:30:24;;;;;;;17.85;9.20;;;8.10;99.90;;;;;;6180402;23;20646;-92
2024/03/03 06:32:50;;;;;;;14.30;8.60;;;8.10;99.90;;;;;;6178216;23;20524;-91
2024/03/03 06:35:16;;;;;;;14.18;8.15;;;8.10;99.90;;;;;;6180714;23;20009;-92
2024/03/03 06:37:43;;;;;;;14.35;8.23;;;8.10;99.90;;;;;;6168368;23;20009;-91
2024/03/03 06:40:09;;;;;;;13.73;7.88;;;8.20;99.90;;;;;;6180389;23;20017;-91
2024/03/03 06:42:39;;;;;;;12.30;8.15;;;8.10;99.90;;;;;;6177962;23;20016;-91
2024/03/03 06:45:05;;;;;;;12.93;8.00;;;8.10;99.90;;;;;;6205611;22;20095;-91
2024/03/03 06:47:32;;;;;;;16.25;8.25;;;8.10;99.90;;;;;;6179366;22;20020;-90
2024/03/03 06:50:02;;;;;;;15.02;8.10;;;8.20;99.90;;;;;;6152761;23;20088;-90
2024/03/03 06:52:31;;;;;;;13.38;7.70;;;8.10;99.90;;;;;;6184379;22;20020;-91
2024/03/03 06:54:57;;;;;;;13.32;7.88;;;8.20;99.90;;;;;;6177906;22;20471;-91
2024/03/03 06:57:23;;;;;;;14.25;8.60;;;8.30;99.90;;;;;;6178355;22;20112;-90
2024/03/03 06:59:49;;;;;;;13.07;7.88;;;8.30;99.90;;;;;;6176339;22;20012;-92
2024/03/03 07:02:15;;;;;;;16.23;7.78;;;8.40;99.90;;;;;;6178966;22;20094;-91
2024/03/03 07:04:41;;;;;;;14.30;8.68;;;8.40;99.90;;;;;;6180426;23;20012;-91
2024/03/03 07:07:10;;;;;;;17.92;8.90;;;8.40;99.90;;;;;;6178433;23;20062;-91
2024/03/03 07:09:37;;;;;;;13.77;8.35;;;8.40;99.90;;;;;;6178314;22;20068;-91
2024/03/03 07:12:03;;;;;;;14.40;8.63;;;8.50;99.90;;;;;;6158982;23;20443;-91
2024/03/03 07:14:28;;;;;;;13.25;8.35;;;8.50;99.90;;;;;;6162936;23;20036;-91
2024/03/03 07:16:54;;;;;;;16.38;9.23;;;8.50;99.90;;;;;;6177710;22;20012;-91
2024/03/03 07:19:20;;;;;;;14.52;8.02;;;8.60;99.90;;;;;;6179445;22;20019;-92
2024/03/03 07:21:45;;;;;;;13.90;8.50;;;8.50;99.90;;;;;;6180456;22;20374;-91
2024/03/03 07:24:11;;;;;;;12.73;8.48;;;8.60;99.90;;;;;;6176642;23;20008;-92
2024/03/03 07:26:37;;;;;;;17.60;9.90;;;8.60;99.90;;;;;;6180215;22;20070;-91
2024/03/03 07:29:04;;;;;;;17.13;9.57;;;8.70;99.90;;;;;;6182511;22;21458;-91
2024/03/03 07:31:30;;;;;;;15.50;8.73;;;8.70;99.90;;;;;;6183222;22;20016;-91
2024/03/03 07:33:56;;;;;;;15.65;8.27;;;8.80;99.90;;;;;;6182718;22;20012;-92
2024/03/03 07:36:22;;;;;;;12.30;7.85;;;8.80;99.90;;;;;;6183052;23;20024;-92
2024/03/03 07:38:48;;;;;;;15.20;8.50;;;8.90;99.90;;;;;;6180550;22;20013;-92
2024/03/03 07:41:15;;;;;;;14.07;8.48;;;9.00;99.90;;;;;;6180364;23;20083;-91
2024/03/03 07:43:40;;;;;;;14.13;8.68;;;9.10;99.90;;;;;;6157320;23;20028;-90
2024/03/03 07:46:06;;;;;;;15.15;8.70;;;9.10;99.90;;;;;;6180965;23;20024;-90
2024/03/03 07:48:31;;;;;;;15.07;8.32;;;9.10;99.90;;;;;;6181025;23;20017;-90
2024/03/03 07:50:57;;;;;;;13.45;6.95;;;9.20;99.90;;;;;;6180536;22;20355;-91
2024/03/03 07:53:23;;;;;;;9.95;6.32;;;9.40;99.90;;;;;;6180688;22;20016;-90
2024/03/03 07:55:49;;;;;;;12.05;7.47;;;9.30;99.90;;;;;;6180391;22;20040;-91
2024/03/03 07:58:14;;;;;;;16.45;7.35;;;9.40;99.90;;;;;;6181758;22;20008;-90
2024/03/03 08:00:40;;;;;;;13.32;8.02;;;9.50;99.90;;;;;;6182089;23;20012;-90
2024/03/03 08:03:07;;;;;;;15.30;7.82;;;9.60;99.90;;;;;;6180222;22;20012;-91
2024/03/03 08:05:33;;;;;;;14.00;8.35;;;9.60;99.90;;;;;;6207128;22;20019;-91
2024/03/03 08:07:59;;;;;;;12.73;8.00;;;9.80;99.90;;;;;;6181653;22;20368;-92
2024/03/03 08:10:24;;;;;;;11.73;7.55;;;9.90;99.90;;;;;;6181983;22;20111;-91
2024/03/03 08:12:50;;;;;;;14.65;8.30;;;9.90;99.90;;;;;;6182896;22;20442;-91
2024/03/03 08:15:17;;;;;;;15.20;8.77;;;10.00;99.90;;;;;;6182422;22;20009;-91
2024/03/03 08:17:43;;;;;;;13.75;8.02;;;10.10;99.90;;;;;;6181161;23;20016;-90
2024/03/03 08:20:10;;;;;;;11.15;7.07;;;10.10;99.90;;;;;;6181583;23;20020;-91
2024/03/03 08:22:38;;;;;;;19.73;8.48;;;10.20;99.90;;;;;;6180272;22;20095;-91
2024/03/03 08:25:05;;;;;;;12.65;7.68;;;10.40;99.90;;;;;;6181653;22;20016;-91
2024/03/03 08:27:31;;;;;;;12.00;8.23;;;10.40;99.90;;;;;;6181468;23;20048;-91
2024/03/03 08:29:57;;;;;;;12.38;8.68;;;10.50;99.90;;;;;;6180289;22;20470;-90
2024/03/03 08:32:23;;;;;;;14.32;8.88;;;10.60;99.90;;;;;;6180304;22;20020;-90
2024/03/03 08:34:49;;;;;;;17.83;9.57;;;10.50;99.90;;;;;;6181151;23;20021;-90
2024/03/03 08:37:15;;;;;;;15.65;8.40;;;10.70;99.90;;;;;;6180630;22;20020;-91
2024/03/03 08:39:40;;;;;;;17.40;9.55;;;10.80;99.90;;;;;;6180687;23;20024;-90
2024/03/03 08:42:06;;;;;;;11.40;7.05;;;10.80;99.90;;;;;;6204384;22;20435;-88
2024/03/03 08:44:32;;;;;;;14.63;8.23;;;10.90;99.90;;;;;;6179072;22;20062;-90
2024/03/03 08:46:58;;;;;;;12.27;7.53;;;11.00;99.90;;;;;;6177990;23;20087;-91
2024/03/03 08:49:23;;;;;;;12.48;7.13;;;11.10;99.90;;;;;;6178617;23;20158;-90
2024/03/03 08:51:50;;;;;;;11.68;7.40;;;11.20;99.90;;;;;;6178397;22;20004;-89
2024/03/03 08:54:16;;;;;;;13.77;8.25;;;11.20;99.90;;;;;;6175971;22;20052;-90
2024/03/03 08:56:42;;;;;;;12.50;6.35;;;11.40;99.90;;;;;;6177965;23;20024;-90
2024/03/03 08:59:08;;;;;;;11.75;6.10;;;11.60;99.90;;;;;;6178120;22;20032;-90
2024/03/03 09:01:37;;;;;;;14.32;6.85;;;11.70;99.90;;;;;;6179961;22;20396;-90
2024/03/03 09:04:03;;;;;;;11.65;7.05;;;11.80;99.90;;;;;;6204509;22;20064;-90
2024/03/03 09:06:28;;;;;;;10.55;7.10;;;11.90;99.90;;;;;;6179265;22;20025;-90
2024/03/03 09:08:54;;;;;;;12.35;7.05;;;11.90;99.90;;;;;;6179982;22;20008;-91
2024/03/03 09:11:20;;;;;;;12.88;8.80;;;12.00;99.90;;;;;;6180753;23;20687;-90
2024/03/03 09:13:45;;;;;;;15.65;9.15;;;12.00;99.90;;;;;;6179248;23;20017;-90
2024/03/03 09:16:13;;;;;;;14.27;6.95;;;12.00;99.90;;;;;;6180838;23;20032;-90
2024/03/03 09:18:38;;;;;;;13.65;7.72;;;12.10;99.90;;;;;;6179731;23;20416;-90
2024/03/03 09:21:08;;;;;;;14.05;8.45;;;12.10;99.90;;;;;;6180206;22;20013;-90
2024/03/03 09:23:33;;;;;;;13.15;6.57;;;12.20;99.90;;;;;;6179969;22;20123;-91
2024/03/03 09:26:00;;;;;;;12.68;7.32;;;12.30;99.90;;;;;;6179696;22;20084;-90
2024/03/03 09:28:25;;;;;;;12.90;8.55;;;12.40;99.90;;;;;;6178930;22;20024;-91
2024/03/03 09:30:51;;;;;;;15.88;9.35;;;12.50;99.90;;;;;;6182040;23;20009;-90
2024/03/03 09:33:17;;;;;;;8.82;5.55;;;12.60;99.90;;;;;;6181603;23;20024;-91
2024/03/03 09:35:43;;;;;;;9.95;5.55;;;12.80;99.90;;;;;;6182913;23;20331;-91
2024/03/03 09:38:08;;;;;;;7.68;5.40;;;12.80;99.90;;;;;;6181053;22;20513;-91
2024/03/03 09:40:36;;;;;;;9.50;6.00;;;12.90;99.90;;;;;;6182582;23;20092;-90
2024/03/03 09:43:02;;;;;;;7.88;5.57;;;13.00;99.90;;;;;;6206755;23;20009;-91
2024/03/03 09:45:28;;;;;;;12.57;7.95;;;13.30;99.90;;;;;;6181391;22;20031;-91
2024/03/03 09:47:53;;;;;;;15.88;7.93;;;13.50;99.90;;;;;;6206430;22;20009;-91
2024/03/03 09:50:19;;;;;;;7.93;5.93;;;13.50;99.90;;;;;;6182306;22;20012;-91
2024/03/03 09:52:45;;;;;;;7.78;5.13;;;13.50;99.90;;;;;;6183026;23;20465;-92
2024/03/03 09:55:11;;;;;;;11.93;5.72;;;13.90;99.90;;;;;;6185355;23;20018;-90
2024/03/03 09:57:38;;;;;;;4.85;3.50;;;14.10;99.90;;;;;;6186599;23;20047;-91
2024/03/03 10:00:04;;;;;;;9.05;5.75;;;14.00;99.90;;;;;;6186842;23;20018;-91
2024/03/03 10:02:42;;;;;;;9.10;6.45;;;14.00;99.90;;;;;;6184790;23;20062;-91
2024/03/03 10:05:08;;;;;;;8.20;5.55;;;14.00;99.90;;;;;;6187422;22;20012;-91
2024/03/03 10:07:55;;;;;;;4.93;3.55;;;13.90;99.90;;;;;;6175665;23;20103;-91
2024/03/03 10:10:28;;;;;;;7.28;4.22;;;14.00;99.90;;;;;;6187275;23;20101;-91
2024/03/03 10:12:54;;;;;;;13.65;8.23;;;14.20;99.90;;;;;;6185237;22;20016;-91
2024/03/03 10:15:20;;;;;;;5.97;4.05;;;14.10;99.90;;;;;;6187252;22;20023;-91
2024/03/03 10:17:46;;;;;;;10.52;6.28;;;14.30;99.90;;;;;;6188572;23;20008;-92
2024/03/03 10:20:12;;;;;;;13.07;8.30;;;14.30;99.90;;;;;;6175362;23;20019;-91
2024/03/03 10:22:40;;;;;;;10.20;7.07;;;14.20;99.90;;;;;;6186931;22;20038;-89
2024/03/03 10:25:15;;;;;;;11.02;7.32;;;14.30;99.90;;;;;;6187635;22;20102;-91
2024/03/03 10:28:12;;;;;;;16.50;8.02;;;14.40;99.90;;;;;;6236839;22;20015;-90
2024/03/03 10:30:39;;;;;;;11.65;8.32;;;14.50;99.90;;;;;;6169574;22;20514;-88
2024/03/03 10:33:05;;;;;;;15.05;7.95;;;14.60;99.90;;;;;;6206269;22;20019;-90
2024/03/03 10:35:31;;;;;;;12.70;9.10;;;14.70;99.90;;;;;;6206657;22;20024;-89
2024/03/03 10:38:01;;;;;;;10.48;8.02;;;14.80;99.90;;;;;;6206525;22;20071;-90
2024/03/03 10:40:29;;;;;;;13.73;8.80;;;14.80;99.90;;;;;;6208256;22;20442;-89
2024/03/03 10:42:55;;;;;;;13.98;8.57;;;14.90;99.90;;;;;;6205741;22;20367;-89
2024/03/03 10:45:21;;;;;;;16.13;9.32;;;14.90;99.90;;;;;;6205499;23;20009;-90
2024/03/03 10:47:50;;;;;;;15.10;8.95;;;15.00;99.90;;;;;;6208787;23;20019;-91
2024/03/03 10:50:19;;;;;;;15.23;9.05;;;15.00;99.90;;;;;;6176227;23;20097;-90
2024/03/03 10:52:51;;;;;;;12.38;8.05;;;15.00;99.90;;;;;;6188662;23;20020;-91
2024/03/03 10:55:17;;;;;;;15.70;8.50;;;15.00;99.90;;;;;;6165074;23;20015;-90
2024/03/03 10:57:43;;;;;;;15.52;9.20;;;15.30;99.90;;;;;;6184871;23;20018;-92
2024/03/03 11:00:14;;;;;;;12.20;7.95;;;15.10;99.90;;;;;;6188918;23;20023;-91
2024/03/03 11:02:43;;;;;;;13.43;9.93;;;15.40;99.90;;;;;;6183149;23;20540;-91
2024/03/03 11:05:11;;;;;;;11.70;9.13;;;15.50;99.90;;;;;;6188761;23;20143;-92
2024/03/03 11:07:37;;;;;;;11.85;8.40;;;15.40;99.90;;;;;;6187526;23;20533;-90
2024/03/03 11:10:03;;;;;;;13.68;8.50;;;15.70;99.90;;;;;;6188850;23;20016;-90
2024/03/03 11:12:29;;;;;;;11.93;8.60;;;16.20;99.90;;;;;;6187416;23;20012;-90
2024/03/03 11:14:56;;;;;;;18.88;8.70;;;16.00;99.90;;;;;;6187586;23;20038;-90
2024/03/03 11:17:23;;;;;;;13.73;8.35;;;15.80;99.90;;;;;;6187347;23;20070;-91
2024/03/03 11:19:49;;;;;;;17.48;9.52;;;15.90;99.90;;;;;;6188003;23;20389;-90
2024/03/03 11:22:24;;;;;;;14.48;9.05;;;15.60;99.90;;;;;;6189800;23;20012;-89
2024/03/03 11:24:57;;;;;;;13.80;8.73;;;15.60;99.90;;;;;;6163232;23;20008;-90
2024/03/03 11:27:26;;;;;;;11.50;7.45;;;15.50;99.90;;;;;;6187577;23;20004;-91
2024/03/03 11:29:54;;;;;;;11.27;7.70;;;15.50;99.90;;;;;;6188250;23;20015;-90
2024/03/03 11:32:20;;;;;;;13.45;8.27;;;15.80;99.90;;;;;;6188996;23;20018;-90
2024/03/03 11:34:46;;;;;;;11.25;8.07;;;16.20;99.90;;;;;;6189336;23;20040;-90
2024/03/03 11:37:12;;;;;;;11.43;7.80;;;15.90;99.90;;;;;;6187934;23;20027;-90
2024/03/03 11:39:49;;;;;;;12.10;6.65;;;15.60;99.90;;;;;;6186874;23;20020;-89
2024/03/03 11:42:19;;;;;;;12.95;7.60;;;15.90;99.90;;;;;;6163085;23;20069;-90
2024/03/03 11:44:52;;;;;;;11.27;7.22;;;15.60;99.90;;;;;;6182985;23;20005;-90
2024/03/03 11:47:22;;;;;;;9.32;6.70;;;15.50;99.90;;;;;;6188090;23;20046;-89
2024/03/03 11:49:49;;;;;;;9.55;6.53;;;15.90;99.90;;;;;;6164261;23;20012;-89
2024/03/03 11:52:40;;;;;;;8.63;7.15;;;16.20;99.90;;;;;;6187081;23;20458;-89
2024/03/03 11:55:08;;;;;;;10.70;6.57;;;16.20;99.90;;;;;;6171701;23;20123;-90
2024/03/03 11:57:33;;;;;;;10.73;6.65;;;15.80;99.90;;;;;;6188726;23;20387;-89
2024/03/03 12:00:12;;;;;;;9.88;5.78;;;15.50;99.90;;;;;;6186377;23;20016;-89
2024/03/03 12:02:41;;;;;;;12.35;6.60;;;16.20;99.90;;;;;;6214536;23;20008;-89
2024/03/03 12:05:14;;;;;;;12.75;6.57;;;15.90;99.90;;;;;;6181592;23;20069;-89
2024/03/03 12:07:51;;;;;;;7.88;5.45;;;15.70;99.90;;;;;;6184876;23;20008;-90
2024/03/03 12:10:21;;;;;;;8.48;6.05;;;15.60;99.90;;;;;;6184478;23;20063;-89
2024/03/03 12:12:53;;;;;;;7.88;5.38;;;15.60;99.90;;;;;;6159653;23;20012;-91
2024/03/03 12:15:20;;;;;;;8.27;5.15;;;15.90;99.90;;;;;;6183374;23;20352;-90
2024/03/03 12:17:50;;;;;;;8.70;5.40;;;16.20;99.90;;;;;;6159326;23;20016;-89
2024/03/03 12:20:20;;;;;;;10.57;6.55;;;16.50;99.90;;;;;;6183573;23;20012;-90
2024/03/03 12:22:46;;;;;;;8.77;6.57;;;16.10;99.90;;;;;;6183603;23;20016;-91
2024/03/03 12:25:16;;;;;;;9.82;6.00;;;16.00;99.90;;;;;;6182857;23;20008;-90
2024/03/03 12:28:00;;;;;;;16.20;6.68;;;15.60;99.90;;;;;;6182876;23;20450;-91
2024/03/03 12:30:31;;;;;;;10.00;6.28;;;15.60;99.90;;;;;;6160576;23;20066;-90
2024/03/03 12:32:57;;;;;;;11.32;6.70;;;15.60;99.90;;;;;;6209098;23;20512;-90
2024/03/03 12:35:24;;;;;;;8.93;6.28;;;16.00;99.90;;;;;;6184387;23;20042;-91
2024/03/03 12:37:56;;;;;;;12.75;6.78;;;16.50;99.90;;;;;;6184725;23;20062;-91
2024/03/03 12:40:21;;;;;;;9.27;5.80;;;16.80;99.90;;;;;;6159646;23;20024;-92
2024/03/03 12:42:50;;;;;;;7.13;4.10;;;16.60;99.90;;;;;;6184267;23;20011;-91